sensor_id;sensor_type;location;lat;lon;timestamp;P1;durP1;ratioP1;P2;durP2;ratioP2
12908;SDS011;6522;49.622;6.126;2023-07-09T00:02:40;20.73;;;19.33;;
12908;SDS011;6522;49.622;6.126;2023-07-09T00:05:26;19.60;;;18.50;;
12908;SDS011;6522;49.622;6.126;2023-07-09T00:08:24;20.53;;;19.33;;
12908;SDS011;6522;49.622;6.126;2023-07-09T00:11:09;19.47;;;18.07;;
12908;SDS011;6522;49.622;6.126;2023-07-09T00:13:56;19.47;;;18.10;;
12908;SDS011;6522;49.622;6.126;2023-07-09T00:16:44;20.53;;;18.90;;
12908;SDS011;6522;49.622;6.126;2023-07-09T00:19:30;20.47;;;19.00;;
12908;SDS011;6522;49.622;6.126;2023-07-09T00:22:17;19.00;;;17.90;;
12908;SDS011;6522;49.622;6.126;2023-07-09T00:25:03;17.87;;;16.87;;
12908;SDS011;6522;49.622;6.126;2023-07-09T00:27:50;19.30;;;18.20;;
12908;SDS011;6522;49.622;6.126;2023-07-09T00:30:37;18.03;;;16.93;;
12908;SDS011;6522;49.622;6.126;2023-07-09T00:33:24;17.60;;;16.43;;
12908;SDS011;6522;49.622;6.126;2023-07-09T00:36:13;16.33;;;15.02;;
12908;SDS011;6522;49.622;6.126;2023-07-09T00:38:57;19.63;;;18.43;;
12908;SDS011;6522;49.622;6.126;2023-07-09T00:41:44;16.48;;;15.38;;
12908;SDS011;6522;49.622;6.126;2023-07-09T00:44:31;15.88;;;14.87;;
12908;SDS011;6522;49.622;6.126;2023-07-09T00:47:22;19.30;;;17.57;;
12908;SDS011;6522;49.622;6.126;2023-07-09T00:50:09;18.10;;;17.00;;
12908;SDS011;6522;49.622;6.126;2023-07-09T00:52:56;17.93;;;16.83;;
12908;SDS011;6522;49.622;6.126;2023-07-09T00:55:41;16.60;;;15.53;;
12908;SDS011;6522;49.622;6.126;2023-07-09T00:58:28;14.90;;;13.90;;
12908;SDS011;6522;49.622;6.126;2023-07-09T01:01:16;16.77;;;15.77;;
12908;SDS011;6522;49.622;6.126;2023-07-09T01:04:02;16.55;;;15.23;;
12908;SDS011;6522;49.622;6.126;2023-07-09T01:06:50;16.80;;;15.80;;
12908;SDS011;6522;49.622;6.126;2023-07-09T01:09:35;15.18;;;13.98;;
12908;SDS011;6522;49.622;6.126;2023-07-09T01:12:22;18.50;;;17.30;;
12908;SDS011;6522;49.622;6.126;2023-07-09T01:15:09;15.40;;;14.38;;
12908;SDS011;6522;49.622;6.126;2023-07-09T01:17:56;15.35;;;14.35;;
12908;SDS011;6522;49.622;6.126;2023-07-09T01:20:42;18.80;;;17.60;;
12908;SDS011;6522;49.622;6.126;2023-07-09T01:23:29;16.00;;;14.70;;
12908;SDS011;6522;49.622;6.126;2023-07-09T01:26:17;15.38;;;14.27;;
12908;SDS011;6522;49.622;6.126;2023-07-09T01:29:02;15.00;;;14.00;;
12908;SDS011;6522;49.622;6.126;2023-07-09T01:31:49;17.33;;;16.33;;
12908;SDS011;6522;49.622;6.126;2023-07-09T01:34:36;14.52;;;13.52;;
12908;SDS011;6522;49.622;6.126;2023-07-09T01:37:24;17.97;;;16.07;;
12908;SDS011;6522;49.622;6.126;2023-07-09T01:40:11;15.57;;;14.48;;
12908;SDS011;6522;49.622;6.126;2023-07-09T01:42:57;15.07;;;13.80;;
12908;SDS011;6522;49.622;6.126;2023-07-09T01:45:44;14.43;;;13.30;;
12908;SDS011;6522;49.622;6.126;2023-07-09T01:48:31;16.90;;;15.73;;
12908;SDS011;6522;49.622;6.126;2023-07-09T01:51:17;14.80;;;13.50;;
12908;SDS011;6522;49.622;6.126;2023-07-09T01:54:04;17.20;;;15.80;;
12908;SDS011;6522;49.622;6.126;2023-07-09T01:56:51;13.77;;;12.68;;
12908;SDS011;6522;49.622;6.126;2023-07-09T01:59:38;15.47;;;13.30;;
12908;SDS011;6522;49.622;6.126;2023-07-09T02:02:25;13.97;;;12.77;;
12908;SDS011;6522;49.622;6.126;2023-07-09T02:05:12;14.25;;;13.00;;
12908;SDS011;6522;49.622;6.126;2023-07-09T02:07:58;13.38;;;12.18;;
12908;SDS011;6522;49.622;6.126;2023-07-09T02:10:45;17.70;;;15.80;;
12908;SDS011;6522;49.622;6.126;2023-07-09T02:13:31;13.10;;;12.00;;
12908;SDS011;6522;49.622;6.126;2023-07-09T02:16:18;13.70;;;12.70;;
12908;SDS011;6522;49.622;6.126;2023-07-09T02:19:05;15.30;;;14.10;;
12908;SDS011;6522;49.622;6.126;2023-07-09T02:21:52;13.93;;;12.63;;
12908;SDS011;6522;49.622;6.126;2023-07-09T02:24:38;12.83;;;11.73;;
12908;SDS011;6522;49.622;6.126;2023-07-09T02:27:25;16.30;;;15.10;;
12908;SDS011;6522;49.622;6.126;2023-07-09T02:30:11;13.52;;;12.43;;
12908;SDS011;6522;49.622;6.126;2023-07-09T02:32:58;13.70;;;12.50;;
12908;SDS011;6522;49.622;6.126;2023-07-09T02:35:45;14.53;;;13.43;;
12908;SDS011;6522;49.622;6.126;2023-07-09T02:38:32;12.60;;;11.50;;
12908;SDS011;6522;49.622;6.126;2023-07-09T02:41:18;14.10;;;13.00;;
12908;SDS011;6522;49.622;6.126;2023-07-09T02:44:05;14.53;;;13.33;;
12908;SDS011;6522;49.622;6.126;2023-07-09T02:46:52;12.95;;;11.85;;
12908;SDS011;6522;49.622;6.126;2023-07-09T02:49:38;13.52;;;12.37;;
12908;SDS011;6522;49.622;6.126;2023-07-09T02:52:25;15.83;;;14.53;;
12908;SDS011;6522;49.622;6.126;2023-07-09T02:55:12;13.35;;;12.20;;
12908;SDS011;6522;49.622;6.126;2023-07-09T02:57:59;14.00;;;12.70;;
12908;SDS011;6522;49.622;6.126;2023-07-09T03:00:48;13.67;;;12.60;;
12908;SDS011;6522;49.622;6.126;2023-07-09T03:03:33;13.62;;;12.55;;
12908;SDS011;6522;49.622;6.126;2023-07-09T03:06:20;13.93;;;12.80;;
12908;SDS011;6522;49.622;6.126;2023-07-09T03:09:07;14.60;;;13.57;;
12908;SDS011;6522;49.622;6.126;2023-07-09T03:11:54;12.25;;;11.15;;
12908;SDS011;6522;49.622;6.126;2023-07-09T03:14:40;12.40;;;11.27;;
12908;SDS011;6522;49.622;6.126;2023-07-09T03:17:27;13.97;;;13.00;;
12908;SDS011;6522;49.622;6.126;2023-07-09T03:20:14;12.40;;;11.40;;
12908;SDS011;6522;49.622;6.126;2023-07-09T03:23:01;12.30;;;11.25;;
12908;SDS011;6522;49.622;6.126;2023-07-09T03:25:48;13.00;;;11.90;;
12908;SDS011;6522;49.622;6.126;2023-07-09T03:28:35;13.95;;;11.30;;
12908;SDS011;6522;49.622;6.126;2023-07-09T03:31:22;12.88;;;11.98;;
12908;SDS011;6522;49.622;6.126;2023-07-09T03:34:09;13.53;;;12.63;;
12908;SDS011;6522;49.622;6.126;2023-07-09T03:36:56;12.60;;;11.07;;
12908;SDS011;6522;49.622;6.126;2023-07-09T03:39:42;13.23;;;12.02;;
12908;SDS011;6522;49.622;6.126;2023-07-09T03:42:29;15.13;;;13.93;;
12908;SDS011;6522;49.622;6.126;2023-07-09T03:45:15;12.47;;;11.27;;
12908;SDS011;6522;49.622;6.126;2023-07-09T03:48:02;13.45;;;12.15;;
12908;SDS011;6522;49.622;6.126;2023-07-09T03:50:49;15.80;;;14.50;;
12908;SDS011;6522;49.622;6.126;2023-07-09T03:53:36;13.50;;;12.20;;
12908;SDS011;6522;49.622;6.126;2023-07-09T03:56:23;13.73;;;12.43;;
12908;SDS011;6522;49.622;6.126;2023-07-09T03:59:10;13.73;;;12.73;;
12908;SDS011;6522;49.622;6.126;2023-07-09T04:01:56;12.30;;;11.30;;
12908;SDS011;6522;49.622;6.126;2023-07-09T04:04:43;12.65;;;11.45;;
12908;SDS011;6522;49.622;6.126;2023-07-09T04:07:30;13.80;;;12.90;;
12908;SDS011;6522;49.622;6.126;2023-07-09T04:10:17;12.50;;;11.60;;
12908;SDS011;6522;49.622;6.126;2023-07-09T04:13:04;11.80;;;10.80;;
12908;SDS011;6522;49.622;6.126;2023-07-09T04:15:51;13.97;;;12.83;;
12908;SDS011;6522;49.622;6.126;2023-07-09T04:18:37;12.68;;;11.68;;
12908;SDS011;6522;49.622;6.126;2023-07-09T04:21:24;12.90;;;11.60;;
12908;SDS011;6522;49.622;6.126;2023-07-09T04:24:11;16.73;;;15.17;;
12908;SDS011;6522;49.622;6.126;2023-07-09T04:26:58;12.25;;;11.15;;
12908;SDS011;6522;49.622;6.126;2023-07-09T04:29:44;12.50;;;11.45;;
12908;SDS011;6522;49.622;6.126;2023-07-09T04:32:31;14.27;;;13.27;;
12908;SDS011;6522;49.622;6.126;2023-07-09T04:35:18;12.18;;;11.00;;
12908;SDS011;6522;49.622;6.126;2023-07-09T04:38:04;12.45;;;11.15;;
12908;SDS011;6522;49.622;6.126;2023-07-09T04:40:51;13.43;;;12.27;;
12908;SDS011;6522;49.622;6.126;2023-07-09T04:43:38;12.32;;;11.23;;
12908;SDS011;6522;49.622;6.126;2023-07-09T04:46:25;12.23;;;11.32;;
12908;SDS011;6522;49.622;6.126;2023-07-09T04:49:11;12.13;;;10.93;;
12908;SDS011;6522;49.622;6.126;2023-07-09T04:51:58;14.97;;;13.37;;
12908;SDS011;6522;49.622;6.126;2023-07-09T04:54:45;11.75;;;10.75;;
12908;SDS011;6522;49.622;6.126;2023-07-09T04:57:31;12.57;;;11.57;;
12908;SDS011;6522;49.622;6.126;2023-07-09T05:00:18;13.63;;;12.53;;
12908;SDS011;6522;49.622;6.126;2023-07-09T05:03:05;12.10;;;11.10;;
12908;SDS011;6522;49.622;6.126;2023-07-09T05:05:51;11.50;;;10.60;;
12908;SDS011;6522;49.622;6.126;2023-07-09T05:08:38;14.07;;;12.83;;
12908;SDS011;6522;49.622;6.126;2023-07-09T05:11:25;14.02;;;11.07;;
12908;SDS011;6522;49.622;6.126;2023-07-09T05:14:12;14.30;;;12.80;;
12908;SDS011;6522;49.622;6.126;2023-07-09T05:16:58;12.40;;;11.40;;
12908;SDS011;6522;49.622;6.126;2023-07-09T05:19:45;14.67;;;13.70;;
12908;SDS011;6522;49.622;6.126;2023-07-09T05:22:32;12.93;;;11.20;;
12908;SDS011;6522;49.622;6.126;2023-07-09T05:25:19;12.80;;;11.60;;
12908;SDS011;6522;49.622;6.126;2023-07-09T05:28:06;14.10;;;13.20;;
12908;SDS011;6522;49.622;6.126;2023-07-09T05:30:53;12.87;;;11.77;;
12908;SDS011;6522;49.622;6.126;2023-07-09T05:33:40;14.20;;;13.27;;
12908;SDS011;6522;49.622;6.126;2023-07-09T05:36:27;14.18;;;13.00;;
12908;SDS011;6522;49.622;6.126;2023-07-09T05:39:13;14.10;;;12.80;;
12908;SDS011;6522;49.622;6.126;2023-07-09T05:42:00;15.27;;;14.27;;
12908;SDS011;6522;49.622;6.126;2023-07-09T05:44:47;13.27;;;12.17;;
12908;SDS011;6522;49.622;6.126;2023-07-09T05:47:33;15.60;;;14.50;;
12908;SDS011;6522;49.622;6.126;2023-07-09T05:50:20;14.60;;;13.30;;
12908;SDS011;6522;49.622;6.126;2023-07-09T05:53:07;17.07;;;15.90;;
12908;SDS011;6522;49.622;6.126;2023-07-09T05:55:54;17.00;;;15.70;;
12908;SDS011;6522;49.622;6.126;2023-07-09T05:58:40;15.43;;;14.23;;
12908;SDS011;6522;49.622;6.126;2023-07-09T06:01:27;16.73;;;15.63;;
12908;SDS011;6522;49.622;6.126;2023-07-09T06:04:14;15.87;;;14.70;;
12908;SDS011;6522;49.622;6.126;2023-07-09T06:07:01;15.40;;;14.40;;
12908;SDS011;6522;49.622;6.126;2023-07-09T06:09:48;16.00;;;14.80;;
12908;SDS011;6522;49.622;6.126;2023-07-09T06:12:35;16.63;;;15.20;;
12908;SDS011;6522;49.622;6.126;2023-07-09T06:15:21;15.40;;;14.40;;
12908;SDS011;6522;49.622;6.126;2023-07-09T06:18:08;16.53;;;15.37;;
12908;SDS011;6522;49.622;6.126;2023-07-09T06:20:56;16.07;;;15.00;;
12908;SDS011;6522;49.622;6.126;2023-07-09T06:23:41;18.33;;;16.77;;
12908;SDS011;6522;49.622;6.126;2023-07-09T06:26:28;15.18;;;14.07;;
12908;SDS011;6522;49.622;6.126;2023-07-09T06:29:15;18.00;;;16.30;;
12908;SDS011;6522;49.622;6.126;2023-07-09T06:32:02;16.90;;;15.90;;
12908;SDS011;6522;49.622;6.126;2023-07-09T06:34:48;17.10;;;15.73;;
12908;SDS011;6522;49.622;6.126;2023-07-09T06:37:35;15.68;;;14.68;;
12908;SDS011;6522;49.622;6.126;2023-07-09T06:40:22;18.07;;;16.83;;
12908;SDS011;6522;49.622;6.126;2023-07-09T06:43:09;16.57;;;15.57;;
12908;SDS011;6522;49.622;6.126;2023-07-09T06:45:57;17.63;;;15.80;;
12908;SDS011;6522;49.622;6.126;2023-07-09T06:48:42;17.07;;;15.80;;
12908;SDS011;6522;49.622;6.126;2023-07-09T06:51:29;17.67;;;16.53;;
12908;SDS011;6522;49.622;6.126;2023-07-09T06:54:16;18.67;;;17.27;;
12908;SDS011;6522;49.622;6.126;2023-07-09T06:57:03;18.00;;;16.90;;
12908;SDS011;6522;49.622;6.126;2023-07-09T06:59:50;18.57;;;17.07;;
12908;SDS011;6522;49.622;6.126;2023-07-09T07:02:37;15.70;;;14.40;;
12908;SDS011;6522;49.622;6.126;2023-07-09T07:05:24;17.17;;;16.17;;
12908;SDS011;6522;49.622;6.126;2023-07-09T07:08:12;17.80;;;16.60;;
12908;SDS011;6522;49.622;6.126;2023-07-09T07:10:58;18.43;;;17.23;;
12908;SDS011;6522;49.622;6.126;2023-07-09T07:13:44;17.63;;;16.70;;
12908;SDS011;6522;49.622;6.126;2023-07-09T07:16:31;19.27;;;17.80;;
12908;SDS011;6522;49.622;6.126;2023-07-09T07:19:17;19.00;;;17.50;;
12908;SDS011;6522;49.622;6.126;2023-07-09T07:22:04;19.60;;;18.17;;
12908;SDS011;6522;49.622;6.126;2023-07-09T07:24:51;18.60;;;17.50;;
12908;SDS011;6522;49.622;6.126;2023-07-09T07:27:38;20.37;;;19.07;;
12908;SDS011;6522;49.622;6.126;2023-07-09T07:30:25;19.60;;;18.50;;
12908;SDS011;6522;49.622;6.126;2023-07-09T07:33:13;17.48;;;16.17;;
12908;SDS011;6522;49.622;6.126;2023-07-09T07:35:58;18.57;;;17.43;;
12908;SDS011;6522;49.622;6.126;2023-07-09T07:38:45;19.93;;;18.70;;
12908;SDS011;6522;49.622;6.126;2023-07-09T07:41:32;17.85;;;16.52;;
12908;SDS011;6522;49.622;6.126;2023-07-09T07:44:19;20.60;;;19.27;;
12908;SDS011;6522;49.622;6.126;2023-07-09T07:47:06;18.30;;;17.20;;
12908;SDS011;6522;49.622;6.126;2023-07-09T07:49:53;19.80;;;18.60;;
12908;SDS011;6522;49.622;6.126;2023-07-09T07:52:39;19.77;;;18.33;;
12908;SDS011;6522;49.622;6.126;2023-07-09T07:55:26;18.42;;;17.12;;
12908;SDS011;6522;49.622;6.126;2023-07-09T07:58:13;20.77;;;19.40;;
12908;SDS011;6522;49.622;6.126;2023-07-09T08:00:59;19.77;;;18.67;;
12908;SDS011;6522;49.622;6.126;2023-07-09T08:03:46;19.53;;;18.00;;
12908;SDS011;6522;49.622;6.126;2023-07-09T08:06:33;19.70;;;18.50;;
12908;SDS011;6522;49.622;6.126;2023-07-09T08:09:20;19.40;;;18.00;;
12908;SDS011;6522;49.622;6.126;2023-07-09T08:12:06;20.00;;;18.70;;
12908;SDS011;6522;49.622;6.126;2023-07-09T08:14:56;21.37;;;19.80;;
12908;SDS011;6522;49.622;6.126;2023-07-09T08:17:42;18.30;;;17.00;;
12908;SDS011;6522;49.622;6.126;2023-07-09T08:20:30;19.20;;;18.20;;
12908;SDS011;6522;49.622;6.126;2023-07-09T08:23:17;21.47;;;20.27;;
12908;SDS011;6522;49.622;6.126;2023-07-09T08:26:03;20.80;;;19.50;;
12908;SDS011;6522;49.622;6.126;2023-07-09T08:28:50;18.83;;;17.50;;
12908;SDS011;6522;49.622;6.126;2023-07-09T08:31:37;20.33;;;19.13;;
12908;SDS011;6522;49.622;6.126;2023-07-09T08:34:23;19.53;;;18.33;;
12908;SDS011;6522;49.622;6.126;2023-07-09T08:37:10;19.83;;;18.63;;
12908;SDS011;6522;49.622;6.126;2023-07-09T08:39:57;21.07;;;19.87;;
12908;SDS011;6522;49.622;6.126;2023-07-09T08:42:44;20.53;;;19.30;;
12908;SDS011;6522;49.622;6.126;2023-07-09T08:45:40;19.87;;;18.77;;
12908;SDS011;6522;49.622;6.126;2023-07-09T08:48:26;20.97;;;19.73;;
12908;SDS011;6522;49.622;6.126;2023-07-09T08:51:30;21.03;;;19.53;;
12908;SDS011;6522;49.622;6.126;2023-07-09T08:54:25;21.87;;;20.57;;
12908;SDS011;6522;49.622;6.126;2023-07-09T08:57:16;20.53;;;19.23;;
12908;SDS011;6522;49.622;6.126;2023-07-09T09:00:05;20.07;;;18.83;;
12908;SDS011;6522;49.622;6.126;2023-07-09T09:05:35;19.85;;;18.45;;
12908;SDS011;6522;49.622;6.126;2023-07-09T09:08:26;21.43;;;20.17;;
12908;SDS011;6522;49.622;6.126;2023-07-09T09:14:06;20.30;;;19.13;;
12908;SDS011;6522;49.622;6.126;2023-07-09T09:16:51;20.73;;;19.50;;
12908;SDS011;6522;49.622;6.126;2023-07-09T09:19:43;20.50;;;19.50;;
12908;SDS011;6522;49.622;6.126;2023-07-09T09:25:27;21.37;;;20.13;;
12908;SDS011;6522;49.622;6.126;2023-07-09T09:28:11;19.93;;;18.83;;
12908;SDS011;6522;49.622;6.126;2023-07-09T09:30:58;20.20;;;19.03;;
12908;SDS011;6522;49.622;6.126;2023-07-09T09:33:46;20.00;;;19.00;;
12908;SDS011;6522;49.622;6.126;2023-07-09T09:36:32;21.90;;;20.30;;
12908;SDS011;6522;49.622;6.126;2023-07-09T09:39:19;20.03;;;18.93;;
12908;SDS011;6522;49.622;6.126;2023-07-09T09:42:10;20.23;;;18.93;;
12908;SDS011;6522;49.622;6.126;2023-07-09T09:44:55;19.60;;;18.50;;
12908;SDS011;6522;49.622;6.126;2023-07-09T09:47:43;20.40;;;19.40;;
12908;SDS011;6522;49.622;6.126;2023-07-09T09:50:32;21.43;;;20.23;;
12908;SDS011;6522;49.622;6.126;2023-07-09T09:53:22;20.50;;;19.30;;
12908;SDS011;6522;49.622;6.126;2023-07-09T09:56:13;19.10;;;17.80;;
12908;SDS011;6522;49.622;6.126;2023-07-09T09:58:58;19.13;;;18.03;;
12908;SDS011;6522;49.622;6.126;2023-07-09T10:01:45;20.53;;;19.13;;
12908;SDS011;6522;49.622;6.126;2023-07-09T10:04:32;20.13;;;18.73;;
12908;SDS011;6522;49.622;6.126;2023-07-09T10:07:27;19.97;;;18.67;;
12908;SDS011;6522;49.622;6.126;2023-07-09T10:10:11;18.33;;;17.33;;
12908;SDS011;6522;49.622;6.126;2023-07-09T10:18:53;20.47;;;19.37;;
12908;SDS011;6522;49.622;6.126;2023-07-09T10:21:41;20.60;;;19.40;;
12908;SDS011;6522;49.622;6.126;2023-07-09T10:24:31;20.23;;;18.90;;
12908;SDS011;6522;49.622;6.126;2023-07-09T10:27:15;20.93;;;19.57;;
12908;SDS011;6522;49.622;6.126;2023-07-09T10:30:02;20.23;;;18.83;;
12908;SDS011;6522;49.622;6.126;2023-07-09T10:32:56;20.97;;;19.70;;
12908;SDS011;6522;49.622;6.126;2023-07-09T10:35:58;20.70;;;19.60;;
12908;SDS011;6522;49.622;6.126;2023-07-09T10:38:47;20.57;;;19.23;;
12908;SDS011;6522;49.622;6.126;2023-07-09T10:41:31;17.62;;;16.62;;
12908;SDS011;6522;49.622;6.126;2023-07-09T10:44:24;20.67;;;19.47;;
12908;SDS011;6522;49.622;6.126;2023-07-09T10:47:19;20.63;;;19.53;;
12908;SDS011;6522;49.622;6.126;2023-07-09T10:49:57;20.87;;;19.73;;
12908;SDS011;6522;49.622;6.126;2023-07-09T10:52:45;20.93;;;19.63;;
12908;SDS011;6522;49.622;6.126;2023-07-09T10:55:32;19.77;;;18.53;;
12908;SDS011;6522;49.622;6.126;2023-07-09T11:01:13;20.90;;;19.77;;
12908;SDS011;6522;49.622;6.126;2023-07-09T11:04:01;21.30;;;20.10;;
12908;SDS011;6522;49.622;6.126;2023-07-09T11:06:48;20.57;;;19.47;;
12908;SDS011;6522;49.622;6.126;2023-07-09T11:09:37;19.67;;;18.67;;
12908;SDS011;6522;49.622;6.126;2023-07-09T11:12:32;21.10;;;19.43;;
12908;SDS011;6522;49.622;6.126;2023-07-09T11:15:18;20.77;;;19.67;;
12908;SDS011;6522;49.622;6.126;2023-07-09T11:18:06;20.43;;;19.23;;
12908;SDS011;6522;49.622;6.126;2023-07-09T11:20:59;19.90;;;18.70;;
12908;SDS011;6522;49.622;6.126;2023-07-09T11:26:46;19.20;;;18.00;;
12908;SDS011;6522;49.622;6.126;2023-07-09T11:29:25;21.07;;;19.80;;
12908;SDS011;6522;49.622;6.126;2023-07-09T11:32:17;19.87;;;18.77;;
12908;SDS011;6522;49.622;6.126;2023-07-09T11:35:08;19.50;;;18.40;;
12908;SDS011;6522;49.622;6.126;2023-07-09T11:37:55;16.62;;;15.73;;
12908;SDS011;6522;49.622;6.126;2023-07-09T11:40:45;20.93;;;19.70;;
12908;SDS011;6522;49.622;6.126;2023-07-09T11:43:35;20.13;;;18.83;;
12908;SDS011;6522;49.622;6.126;2023-07-09T11:46:22;17.70;;;16.60;;
12908;SDS011;6522;49.622;6.126;2023-07-09T11:49:08;18.67;;;17.67;;
12908;SDS011;6522;49.622;6.126;2023-07-09T11:51:55;18.93;;;17.83;;
12908;SDS011;6522;49.622;6.126;2023-07-09T11:54:41;19.90;;;18.80;;
12908;SDS011;6522;49.622;6.126;2023-07-09T11:57:28;20.47;;;19.00;;
12908;SDS011;6522;49.622;6.126;2023-07-09T12:00:15;20.03;;;18.70;;
12908;SDS011;6522;49.622;6.126;2023-07-09T12:03:02;20.40;;;19.00;;
12908;SDS011;6522;49.622;6.126;2023-07-09T12:06:05;19.30;;;18.20;;
12908;SDS011;6522;49.622;6.126;2023-07-09T12:08:52;20.90;;;19.70;;
12908;SDS011;6522;49.622;6.126;2023-07-09T12:11:42;21.20;;;19.80;;
12908;SDS011;6522;49.622;6.126;2023-07-09T12:14:26;21.57;;;19.97;;
12908;SDS011;6522;49.622;6.126;2023-07-09T12:17:13;20.67;;;19.10;;
12908;SDS011;6522;49.622;6.126;2023-07-09T12:20:00;20.60;;;19.40;;
12908;SDS011;6522;49.622;6.126;2023-07-09T12:22:47;18.50;;;17.30;;
12908;SDS011;6522;49.622;6.126;2023-07-09T12:25:33;21.37;;;20.30;;
12908;SDS011;6522;49.622;6.126;2023-07-09T12:28:21;23.07;;;21.47;;
12908;SDS011;6522;49.622;6.126;2023-07-09T12:31:12;39.40;;;37.30;;
12908;SDS011;6522;49.622;6.126;2023-07-09T12:33:57;43.13;;;39.93;;
12908;SDS011;6522;49.622;6.126;2023-07-09T12:36:48;38.83;;;36.70;;
12908;SDS011;6522;49.622;6.126;2023-07-09T12:39:33;37.83;;;35.53;;
12908;SDS011;6522;49.622;6.126;2023-07-09T12:42:23;29.70;;;27.80;;
12908;SDS011;6522;49.622;6.126;2023-07-09T12:45:08;28.00;;;25.87;;
12908;SDS011;6522;49.622;6.126;2023-07-09T12:47:53;25.80;;;24.20;;
12908;SDS011;6522;49.622;6.126;2023-07-09T12:50:40;21.90;;;20.30;;
12908;SDS011;6522;49.622;6.126;2023-07-09T12:53:27;18.02;;;16.92;;
12908;SDS011;6522;49.622;6.126;2023-07-09T12:56:13;18.45;;;17.15;;
12908;SDS011;6522;49.622;6.126;2023-07-09T12:59:00;19.73;;;18.17;;
12908;SDS011;6522;49.622;6.126;2023-07-09T13:01:50;20.07;;;18.80;;
12908;SDS011;6522;49.622;6.126;2023-07-09T13:04:36;20.83;;;19.43;;
12908;SDS011;6522;49.622;6.126;2023-07-09T13:13:10;16.90;;;15.60;;
12908;SDS011;6522;49.622;6.126;2023-07-09T13:15:57;16.60;;;14.87;;
12908;SDS011;6522;49.622;6.126;2023-07-09T13:18:43;13.90;;;12.83;;
12908;SDS011;6522;49.622;6.126;2023-07-09T13:21:29;11.90;;;10.80;;
12908;SDS011;6522;49.622;6.126;2023-07-09T13:24:23;14.70;;;13.50;;
12908;SDS011;6522;49.622;6.126;2023-07-09T13:27:11;15.37;;;14.03;;
12908;SDS011;6522;49.622;6.126;2023-07-09T13:29:57;13.90;;;12.80;;
12908;SDS011;6522;49.622;6.126;2023-07-09T13:32:45;14.07;;;12.83;;
12908;SDS011;6522;49.622;6.126;2023-07-09T13:35:30;12.03;;;11.20;;
12908;SDS011;6522;49.622;6.126;2023-07-09T13:38:18;11.23;;;10.27;;
12908;SDS011;6522;49.622;6.126;2023-07-09T13:41:18;10.07;;;9.07;;
12908;SDS011;6522;49.622;6.126;2023-07-09T13:44:08;9.50;;;8.60;;
12908;SDS011;6522;49.622;6.126;2023-07-09T13:46:51;9.43;;;8.60;;
12908;SDS011;6522;49.622;6.126;2023-07-09T13:49:37;10.60;;;8.40;;
12908;SDS011;6522;49.622;6.126;2023-07-09T13:52:24;8.73;;;7.63;;
12908;SDS011;6522;49.622;6.126;2023-07-09T13:55:15;10.03;;;8.77;;
12908;SDS011;6522;49.622;6.126;2023-07-09T13:57:57;10.37;;;9.10;;
12908;SDS011;6522;49.622;6.126;2023-07-09T14:00:44;10.50;;;9.40;;
12908;SDS011;6522;49.622;6.126;2023-07-09T14:03:31;12.20;;;10.87;;
12908;SDS011;6522;49.622;6.126;2023-07-09T14:06:17;12.90;;;11.90;;
12908;SDS011;6522;49.622;6.126;2023-07-09T14:09:04;15.60;;;14.40;;
12908;SDS011;6522;49.622;6.126;2023-07-09T14:11:53;17.83;;;16.63;;
12908;SDS011;6522;49.622;6.126;2023-07-09T14:14:38;16.83;;;15.83;;
12908;SDS011;6522;49.622;6.126;2023-07-09T14:17:24;16.93;;;15.77;;
12908;SDS011;6522;49.622;6.126;2023-07-09T14:20:12;15.60;;;14.50;;
12908;SDS011;6522;49.622;6.126;2023-07-09T14:22:58;14.60;;;13.60;;
12908;SDS011;6522;49.622;6.126;2023-07-09T14:25:44;13.83;;;12.73;;
12908;SDS011;6522;49.622;6.126;2023-07-09T14:28:31;11.47;;;10.47;;
12908;SDS011;6522;49.622;6.126;2023-07-09T14:31:23;10.97;;;10.10;;
12908;SDS011;6522;49.622;6.126;2023-07-09T14:37:01;7.87;;;6.93;;
12908;SDS011;6522;49.622;6.126;2023-07-09T14:39:48;10.20;;;7.40;;
12908;SDS011;6522;49.622;6.126;2023-07-09T14:42:34;8.33;;;6.80;;
12908;SDS011;6522;49.622;6.126;2023-07-09T14:45:22;9.30;;;6.70;;
12908;SDS011;6522;49.622;6.126;2023-07-09T14:48:11;7.70;;;6.90;;
12908;SDS011;6522;49.622;6.126;2023-07-09T14:50:57;7.73;;;7.03;;
12908;SDS011;6522;49.622;6.126;2023-07-09T14:53:44;7.67;;;7.07;;
12908;SDS011;6522;49.622;6.126;2023-07-09T14:56:31;7.97;;;6.70;;
12908;SDS011;6522;49.622;6.126;2023-07-09T14:59:18;9.07;;;8.33;;
12908;SDS011;6522;49.622;6.126;2023-07-09T15:02:09;10.13;;;9.33;;
12908;SDS011;6522;49.622;6.126;2023-07-09T15:04:51;10.60;;;9.70;;
12908;SDS011;6522;49.622;6.126;2023-07-09T15:07:38;10.67;;;9.80;;
12908;SDS011;6522;49.622;6.126;2023-07-09T15:10:25;10.40;;;9.70;;
12908;SDS011;6522;49.622;6.126;2023-07-09T15:13:16;10.93;;;9.93;;
12908;SDS011;6522;49.622;6.126;2023-07-09T15:16:02;11.10;;;10.30;;
12908;SDS011;6522;49.622;6.126;2023-07-09T15:18:48;10.53;;;9.70;;
12908;SDS011;6522;49.622;6.126;2023-07-09T15:21:36;10.70;;;9.90;;
12908;SDS011;6522;49.622;6.126;2023-07-09T15:24:27;11.10;;;10.33;;
12908;SDS011;6522;49.622;6.126;2023-07-09T15:27:09;11.12;;;10.02;;
12908;SDS011;6522;49.622;6.126;2023-07-09T15:29:56;12.00;;;11.10;;
12908;SDS011;6522;49.622;6.126;2023-07-09T15:32:43;14.13;;;12.80;;
12908;SDS011;6522;49.622;6.126;2023-07-09T15:35:33;12.63;;;11.37;;
12908;SDS011;6522;49.622;6.126;2023-07-09T15:41:12;12.30;;;11.30;;
12908;SDS011;6522;49.622;6.126;2023-07-09T15:43:59;12.17;;;11.27;;
12908;SDS011;6522;49.622;6.126;2023-07-09T15:46:55;11.20;;;10.20;;
12908;SDS011;6522;49.622;6.126;2023-07-09T15:49:32;10.60;;;9.70;;
12908;SDS011;6522;49.622;6.126;2023-07-09T15:52:19;11.30;;;10.50;;
12908;SDS011;6522;49.622;6.126;2023-07-09T15:55:10;10.50;;;9.60;;
12908;SDS011;6522;49.622;6.126;2023-07-09T15:57:53;10.37;;;9.57;;
12908;SDS011;6522;49.622;6.126;2023-07-09T16:00:40;10.67;;;9.70;;
12908;SDS011;6522;49.622;6.126;2023-07-09T16:03:27;10.90;;;8.50;;
12908;SDS011;6522;49.622;6.126;2023-07-09T16:06:14;10.87;;;9.97;;
12908;SDS011;6522;49.622;6.126;2023-07-09T16:09:00;10.83;;;10.03;;
12908;SDS011;6522;49.622;6.126;2023-07-09T16:11:48;10.73;;;9.93;;
12908;SDS011;6522;49.622;6.126;2023-07-09T16:14:34;10.70;;;10.10;;
12908;SDS011;6522;49.622;6.126;2023-07-09T16:17:21;13.00;;;11.67;;
12908;SDS011;6522;49.622;6.126;2023-07-09T16:20:09;12.93;;;12.13;;
12908;SDS011;6522;49.622;6.126;2023-07-09T16:22:55;12.40;;;11.40;;
12908;SDS011;6522;49.622;6.126;2023-07-09T16:25:41;14.20;;;13.20;;
12908;SDS011;6522;49.622;6.126;2023-07-09T16:28:30;14.90;;;13.80;;
12908;SDS011;6522;49.622;6.126;2023-07-09T16:31:14;15.17;;;14.00;;
12908;SDS011;6522;49.622;6.126;2023-07-09T16:34:01;14.30;;;13.53;;
12908;SDS011;6522;49.622;6.126;2023-07-09T16:36:48;15.50;;;14.50;;
12908;SDS011;6522;49.622;6.126;2023-07-09T16:39:36;14.47;;;13.57;;
12908;SDS011;6522;49.622;6.126;2023-07-09T16:42:22;14.83;;;13.83;;
12908;SDS011;6522;49.622;6.126;2023-07-09T16:45:09;15.10;;;14.10;;
12908;SDS011;6522;49.622;6.126;2023-07-09T16:47:56;15.20;;;14.10;;
12908;SDS011;6522;49.622;6.126;2023-07-09T16:50:42;13.83;;;12.90;;
12908;SDS011;6522;49.622;6.126;2023-07-09T16:53:29;13.37;;;12.47;;
12908;SDS011;6522;49.622;6.126;2023-07-09T16:56:16;12.93;;;11.83;;
12908;SDS011;6522;49.622;6.126;2023-07-09T16:59:02;14.20;;;13.40;;
12908;SDS011;6522;49.622;6.126;2023-07-09T17:01:49;14.10;;;13.30;;
12908;SDS011;6522;49.622;6.126;2023-07-09T17:04:36;13.30;;;12.40;;
12908;SDS011;6522;49.622;6.126;2023-07-09T17:07:22;11.93;;;11.02;;